createdAt,value
2018-09-22T00:02:27.090Z,2.13
2018-09-22T00:04:54.616Z,1.90
2018-09-22T00:07:22.139Z,1.80
2018-09-22T00:09:49.864Z,2.00
2018-09-22T00:12:17.397Z,1.75
2018-09-22T00:14:45.001Z,1.65
2018-09-22T00:17:12.556Z,1.85
2018-09-22T00:19:40.195Z,1.80
2018-09-22T00:22:07.791Z,1.60
2018-09-22T00:24:35.359Z,1.70
2018-09-22T00:27:02.927Z,1.67
2018-09-22T00:29:30.556Z,1.72
2018-09-22T00:31:58.140Z,1.67
2018-09-22T00:34:25.683Z,1.55
2018-09-22T00:36:53.227Z,1.50
2018-09-22T00:39:20.768Z,1.98
2018-09-22T00:41:48.384Z,1.57
2018-09-22T00:44:15.956Z,1.13
2018-09-22T00:46:43.495Z,1.50
2018-09-22T00:49:11.041Z,1.35
2018-09-22T00:51:38.992Z,1.40
2018-09-22T00:54:06.547Z,1.23
2018-09-22T00:56:34.148Z,1.55
2018-09-22T00:59:01.730Z,1.80
2018-09-22T01:01:29.384Z,1.67
2018-09-22T01:03:57.312Z,1.60
2018-09-22T01:06:24.951Z,1.30
2018-09-22T01:08:52.548Z,1.40
2018-09-22T01:11:20.239Z,1.50
2018-09-22T01:13:47.823Z,1.53
2018-09-22T01:16:15.392Z,1.40
2018-09-22T01:18:42.999Z,1.40
2018-09-22T01:21:10.556Z,1.50
2018-09-22T01:23:38.194Z,1.35
2018-09-22T01:26:06.151Z,1.60
2018-09-22T01:28:33.737Z,1.50
2018-09-22T01:31:01.365Z,1.47
2018-09-22T01:33:29.007Z,1.40
2018-09-22T01:35:56.591Z,1.40
2018-09-22T01:38:24.156Z,1.40
2018-09-22T01:40:51.752Z,1.35
2018-09-22T01:43:19.329Z,1.20
2018-09-22T01:45:47.049Z,1.33
2018-09-22T01:48:14.777Z,1.20
2018-09-22T01:50:42.360Z,1.37
2018-09-22T01:53:09.969Z,1.33
2018-09-22T01:55:37.578Z,1.17
2018-09-22T01:58:05.236Z,1.53
2018-09-22T02:00:32.876Z,1.20
2018-09-22T02:03:00.468Z,1.20
2018-09-22T02:05:28.068Z,1.20
2018-09-22T02:07:55.627Z,1.20
2018-09-22T02:10:23.277Z,1.00
2018-09-22T02:12:50.914Z,1.40
2018-09-22T02:15:18.496Z,2.00
2018-09-22T02:17:46.053Z,1.10
2018-09-22T02:20:13.705Z,1.30
2018-09-22T02:22:41.276Z,1.20
2018-09-22T02:25:08.949Z,1.20
2018-09-22T02:27:36.802Z,1.10
2018-09-22T02:30:04.710Z,1.30
2018-09-22T02:32:32.309Z,1.10
2018-09-22T02:34:59.886Z,1.40
2018-09-22T02:37:27.528Z,1.10
2018-09-22T02:39:55.116Z,1.00
2018-09-22T02:42:22.685Z,1.20
2018-09-22T02:44:50.300Z,1.10
2018-09-22T02:47:18.100Z,1.00
2018-09-22T02:49:45.655Z,0.93
2018-09-22T02:52:13.318Z,0.97
2018-09-22T02:54:40.916Z,1.10
2018-09-22T02:57:08.489Z,1.00
2018-09-22T02:59:36.062Z,1.10
2018-09-22T03:02:03.771Z,1.30
2018-09-22T03:04:31.393Z,1.30
2018-09-22T03:06:59.021Z,1.17
2018-09-22T03:09:26.648Z,1.30
2018-09-22T03:11:54.225Z,1.40
2018-09-22T03:14:22.096Z,1.27
2018-09-22T03:16:49.712Z,1.50
2018-09-22T03:19:17.287Z,1.57
2018-09-22T03:21:44.882Z,1.57
2018-09-22T03:24:12.469Z,1.57
2018-09-22T03:26:40.085Z,1.37
2018-09-22T03:29:07.778Z,1.00
2018-09-22T03:31:35.350Z,1.27
2018-09-22T03:34:02.912Z,1.10
2018-09-22T03:36:30.525Z,0.97
2018-09-22T03:38:58.108Z,1.00
2018-09-22T03:41:25.687Z,1.30
2018-09-22T03:43:53.312Z,1.10
2018-09-22T03:46:20.937Z,1.30
2018-09-22T03:48:48.488Z,1.67
2018-09-22T03:51:16.068Z,2.07
2018-09-22T03:53:43.760Z,1.40
2018-09-22T03:56:11.452Z,1.33
2018-09-22T03:58:39.281Z,1.30
2018-09-22T04:01:06.962Z,1.30
2018-09-22T04:03:34.572Z,1.10
2018-09-22T04:06:02.656Z,1.13
2018-09-22T04:08:30.312Z,1.10
2018-09-22T04:10:57.927Z,1.00
2018-09-22T04:13:25.616Z,1.20
2018-09-22T04:15:53.318Z,1.10
2018-09-22T04:18:20.892Z,0.90
2018-09-22T04:20:48.613Z,1.27
2018-09-22T04:23:16.452Z,1.20
2018-09-22T04:25:44.078Z,1.30
2018-09-22T04:28:11.703Z,1.40
2018-09-22T04:30:39.312Z,1.37
2018-09-22T04:33:06.985Z,1.27
2018-09-22T04:35:34.573Z,1.50
2018-09-22T04:38:02.182Z,1.30
2018-09-22T04:40:29.749Z,1.10
2018-09-22T04:42:57.701Z,1.30
2018-09-22T04:45:25.292Z,1.23
2018-09-22T04:47:52.867Z,1.00
2018-09-22T04:50:20.509Z,1.20
2018-09-22T04:52:48.094Z,1.10
2018-09-22T04:55:15.744Z,1.20
2018-09-22T04:57:43.324Z,1.40
2018-09-22T05:00:10.972Z,0.97
2018-09-22T05:02:38.551Z,1.20
2018-09-22T05:05:06.134Z,1.37
2018-09-22T05:07:33.705Z,1.30
2018-09-22T05:10:01.317Z,1.10
2018-09-22T05:12:28.933Z,1.30
2018-09-22T05:14:56.500Z,1.37
2018-09-22T05:17:24.083Z,1.00
2018-09-22T05:19:51.652Z,1.20
2018-09-22T05:22:19.293Z,1.33
2018-09-22T05:24:46.918Z,0.97
2018-09-22T05:27:14.502Z,1.10
2018-09-22T05:29:42.178Z,1.13
2018-09-22T05:32:09.772Z,1.20
2018-09-22T05:34:37.391Z,1.10
2018-09-22T05:37:05.226Z,1.20
2018-09-22T05:39:32.931Z,1.00
2018-09-22T05:42:00.505Z,1.07
2018-09-22T05:44:28.081Z,0.90
2018-09-22T05:46:55.647Z,1.10
2018-09-22T05:49:23.205Z,1.53
2018-09-22T05:51:50.772Z,2.60
2018-09-22T05:54:18.343Z,1.90
2018-09-22T05:56:45.931Z,1.70
2018-09-22T05:59:13.516Z,1.53
2018-09-22T06:01:41.115Z,1.67
2018-09-22T06:04:08.677Z,1.47
2018-09-22T06:06:36.269Z,1.57
2018-09-22T06:09:06.318Z,1.57
2018-09-22T06:11:33.936Z,1.57
2018-09-22T06:14:01.802Z,1.27
2018-09-22T06:16:29.448Z,1.30
2018-09-22T06:18:56.989Z,1.30
2018-09-22T06:21:24.608Z,1.23
2018-09-22T06:23:52.519Z,1.30
2018-09-22T06:26:20.972Z,1.30
2018-09-22T06:28:48.608Z,1.60
2018-09-22T06:31:16.183Z,1.60
2018-09-22T06:33:43.752Z,1.40
2018-09-22T06:36:11.339Z,1.30
2018-09-22T06:38:38.931Z,1.50
2018-09-22T06:41:06.860Z,1.60
2018-09-22T06:43:34.458Z,1.37
2018-09-22T06:46:02.376Z,1.60
2018-09-22T06:48:29.997Z,1.70
2018-09-22T06:50:57.601Z,1.87
2018-09-22T06:53:25.166Z,1.30
2018-09-22T06:55:52.751Z,1.43
2018-09-22T06:58:20.556Z,1.23
2018-09-22T07:00:48.273Z,1.70
2018-09-22T07:03:16.288Z,1.67
2018-09-22T07:05:44.042Z,1.50
2018-09-22T07:08:11.623Z,1.50
2018-09-22T07:10:39.517Z,1.35
2018-09-22T07:13:07.244Z,1.72
2018-09-22T07:15:34.822Z,1.40
2018-09-22T07:18:03.377Z,1.40
2018-09-22T07:20:30.943Z,2.10
2018-09-22T07:23:04.213Z,1.55
2018-09-22T07:25:31.890Z,2.17
2018-09-22T07:27:59.908Z,1.80
2018-09-22T07:30:27.672Z,1.90
2018-09-22T07:32:55.264Z,2.35
2018-09-22T07:35:22.869Z,2.00
2018-09-22T07:37:50.480Z,2.25
2018-09-22T07:40:18.148Z,1.95
2018-09-22T07:42:45.745Z,1.80
2018-09-22T07:45:13.728Z,1.90
2018-09-22T07:47:41.267Z,1.62
2018-09-22T07:50:08.885Z,1.60
2018-09-22T07:52:36.452Z,1.65
2018-09-22T07:55:04.104Z,1.80
2018-09-22T07:57:31.681Z,2.20
2018-09-22T07:59:59.608Z,2.00
2018-09-22T08:02:27.189Z,1.82
2018-09-22T08:04:54.783Z,1.70
2018-09-22T08:07:22.353Z,1.75
2018-09-22T08:09:50.093Z,2.37
2018-09-22T08:12:17.654Z,1.77
2018-09-22T08:14:45.229Z,1.55
2018-09-22T08:17:12.830Z,1.80
2018-09-22T08:19:40.485Z,1.72
2018-09-22T08:22:08.044Z,1.90
2018-09-22T08:24:35.672Z,1.92
2018-09-22T08:27:03.303Z,2.42
2018-09-22T08:29:30.896Z,2.45
2018-09-22T08:31:58.523Z,2.20
2018-09-22T08:34:26.079Z,1.80
2018-09-22T08:36:53.788Z,1.60
2018-09-22T08:39:21.344Z,1.60
2018-09-22T08:41:48.963Z,2.08
2018-09-22T08:44:16.569Z,1.62
2018-09-22T08:46:44.139Z,1.70
2018-09-22T08:49:11.739Z,1.67
2018-09-22T08:51:39.294Z,1.95
2018-09-22T08:54:06.912Z,2.00
2018-09-22T08:56:34.524Z,2.33
2018-09-22T08:59:02.164Z,2.10
2018-09-22T09:01:29.770Z,1.77
2018-09-22T09:03:57.439Z,1.75
2018-09-22T09:06:25.160Z,1.60
2018-09-22T09:08:52.748Z,1.80
2018-09-22T09:11:20.411Z,1.80
2018-09-22T09:13:48.016Z,1.20
2018-09-22T09:16:15.565Z,1.72
2018-09-22T09:18:43.211Z,2.08
2018-09-22T09:21:10.784Z,1.42
2018-09-22T09:23:38.366Z,1.95
2018-09-22T09:26:05.973Z,1.90
2018-09-22T09:28:33.556Z,1.47
2018-09-22T09:31:01.160Z,1.10
2018-09-22T09:33:28.742Z,2.00
2018-09-22T09:35:56.371Z,1.60
2018-09-22T09:38:24.007Z,2.07
2018-09-22T09:40:51.562Z,1.87
2018-09-22T09:43:19.246Z,1.70
2018-09-22T09:45:47.069Z,1.80
2018-09-22T09:48:14.704Z,1.72
2018-09-22T09:50:42.327Z,2.00
2018-09-22T09:53:09.903Z,1.98
2018-09-22T09:55:37.492Z,1.60
2018-09-22T09:58:05.588Z,2.00
2018-09-22T10:00:38.773Z,1.70
2018-09-22T10:03:06.341Z,1.90
2018-09-22T10:05:33.932Z,1.87
2018-09-22T10:08:01.505Z,2.10
2018-09-22T10:10:29.095Z,2.08
2018-09-22T10:12:56.774Z,2.15
2018-09-22T10:15:24.377Z,1.65
2018-09-22T10:17:51.940Z,1.90
2018-09-22T10:20:19.594Z,1.50
2018-09-22T10:22:47.419Z,1.87
2018-09-22T10:25:14.984Z,1.90
2018-09-22T10:27:43.079Z,1.62
2018-09-22T10:30:10.659Z,1.90
2018-09-22T10:32:38.207Z,1.50
2018-09-22T10:35:06.058Z,1.50
2018-09-22T10:37:34.166Z,2.10
2018-09-22T10:40:02.417Z,1.70
2018-09-22T10:42:30.093Z,1.85
2018-09-22T10:44:58.370Z,1.98
2018-09-22T10:47:26.033Z,2.17
2018-09-22T10:49:53.594Z,1.70
2018-09-22T10:52:21.164Z,1.95
2018-09-22T10:54:48.812Z,1.98
2018-09-22T10:57:16.389Z,2.15
2018-09-22T10:59:44.769Z,2.12
2018-09-22T11:02:13.301Z,1.40
2018-09-22T11:04:40.978Z,1.77
2018-09-22T11:07:08.543Z,1.55
2018-09-22T11:09:36.094Z,1.60
2018-09-22T11:12:04.822Z,1.27
2018-09-22T11:14:32.364Z,1.77
2018-09-22T11:16:59.956Z,1.80
2018-09-22T11:19:27.542Z,1.25
2018-09-22T11:21:55.104Z,1.50
2018-09-22T11:24:22.724Z,1.40
2018-09-22T11:26:50.350Z,1.75
2018-09-22T11:29:17.956Z,1.45
2018-09-22T11:31:45.546Z,1.80
2018-09-22T11:34:13.161Z,1.02
2018-09-22T11:36:40.741Z,1.30
2018-09-22T11:39:09.324Z,1.10
2018-09-22T11:41:37.595Z,1.40
2018-09-22T11:44:05.148Z,1.70
2018-09-22T11:46:32.742Z,1.42
2018-09-22T11:49:00.543Z,1.62
2018-09-22T11:51:28.121Z,1.30
2018-09-22T11:53:56.132Z,1.87
2018-09-22T11:56:24.473Z,2.12
2018-09-22T11:58:52.344Z,1.87
2018-09-22T12:01:19.944Z,1.57
2018-09-22T12:06:24.247Z,1.60
2018-09-22T12:08:51.932Z,1.40
2018-09-22T12:11:19.759Z,1.50
2018-09-22T12:13:47.350Z,1.47
2018-09-22T12:16:15.373Z,1.47
2018-09-22T12:18:42.953Z,1.35
2018-09-22T12:21:10.754Z,1.65
2018-09-22T12:23:38.718Z,1.70
2018-09-22T12:26:06.724Z,1.50
2018-09-22T12:28:34.371Z,1.70
2018-09-22T12:31:02.012Z,1.10
2018-09-22T12:33:29.905Z,1.57
2018-09-22T12:35:57.484Z,1.57
2018-09-22T12:38:25.031Z,1.52
2018-09-22T12:40:52.644Z,1.50
2018-09-22T12:43:20.196Z,1.37
2018-09-22T12:45:47.764Z,1.42
2018-09-22T12:48:15.460Z,1.60
2018-09-22T12:50:43.092Z,1.20
2018-09-22T12:53:11.024Z,1.62
2018-09-22T12:55:38.603Z,1.40
2018-09-22T12:58:06.280Z,1.47
2018-09-22T13:00:34.420Z,1.80
2018-09-22T13:03:02.013Z,1.10
2018-09-22T13:05:29.613Z,1.80
2018-09-22T13:07:57.392Z,1.30
2018-09-22T13:10:25.045Z,1.50
2018-09-22T13:12:52.675Z,1.30
2018-09-22T13:15:20.681Z,2.02
2018-09-22T13:17:48.433Z,1.45
2018-09-22T13:20:16.063Z,1.47
2018-09-22T13:22:43.821Z,1.30
2018-09-22T13:25:11.385Z,1.60
2018-09-22T13:27:39.245Z,1.60
2018-09-22T13:30:07.088Z,1.70
2018-09-22T13:32:34.989Z,1.70
2018-09-22T13:35:02.731Z,1.42
2018-09-22T13:37:30.365Z,1.65
2018-09-22T13:39:57.928Z,1.42
2018-09-22T13:42:25.824Z,1.70
2018-09-22T13:44:53.889Z,1.00
2018-09-22T13:47:21.444Z,1.20
2018-09-22T13:49:49.047Z,1.42
2018-09-22T13:52:16.601Z,1.60
2018-09-22T13:54:44.583Z,1.42
2018-09-22T13:57:12.167Z,1.98
2018-09-22T13:59:39.797Z,1.67
2018-09-22T14:02:07.444Z,1.60
2018-09-22T14:04:35.547Z,1.83
2018-09-22T14:07:03.205Z,1.37
2018-09-22T14:09:30.844Z,1.45
2018-09-22T14:11:58.445Z,1.57
2018-09-22T14:14:26.030Z,1.30
2018-09-22T14:16:53.937Z,1.80
2018-09-22T14:19:21.519Z,1.50
2018-09-22T14:21:49.371Z,1.47
2018-09-22T14:24:17.122Z,1.45
2018-09-22T14:26:44.783Z,1.63
2018-09-22T14:29:13.602Z,1.90
2018-09-22T14:31:41.349Z,1.60
2018-09-22T14:34:09.290Z,1.72
2018-09-22T14:36:37.025Z,1.50
2018-09-22T14:39:05.436Z,1.30
2018-09-22T14:41:33.265Z,1.50
2018-09-22T14:44:00.906Z,1.50
2018-09-22T14:46:29.552Z,1.40
2018-09-22T14:48:57.520Z,1.30
2018-09-22T14:51:25.052Z,1.67
2018-09-22T14:53:52.648Z,1.57
2018-09-22T14:56:20.211Z,1.80
2018-09-22T14:58:47.801Z,1.60
2018-09-22T15:01:15.425Z,1.30
2018-09-22T15:03:42.965Z,1.25
2018-09-22T15:06:10.610Z,1.70
2018-09-22T15:08:38.217Z,1.40
2018-09-22T15:11:05.813Z,1.50
2018-09-22T15:13:33.388Z,1.10
2018-09-22T15:16:01.323Z,1.25
2018-09-22T15:18:29.043Z,1.32
2018-09-22T15:20:56.721Z,1.22
2018-09-22T15:23:24.313Z,1.57
2018-09-22T15:25:51.932Z,1.20
2018-09-22T15:28:19.569Z,1.40
2018-09-22T15:30:47.246Z,1.25
2018-09-22T15:33:14.916Z,1.57
2018-09-22T15:35:42.507Z,1.22
2018-09-22T15:38:10.139Z,1.40
2018-09-22T15:40:37.859Z,1.30
2018-09-22T15:43:05.504Z,1.10
2018-09-22T15:45:33.175Z,1.10
2018-09-22T15:48:01.421Z,1.55
2018-09-22T15:50:28.972Z,1.10
2018-09-22T15:52:56.568Z,1.30
2018-09-22T15:55:24.142Z,1.10
2018-09-22T15:57:51.776Z,1.10
2018-09-22T16:00:19.364Z,1.25
2018-09-22T16:02:46.993Z,0.93
2018-09-22T16:05:14.640Z,1.10
2018-09-22T16:07:42.223Z,1.42
2018-09-22T16:10:09.997Z,1.80
2018-09-22T16:12:37.564Z,1.80
2018-09-22T16:15:05.277Z,1.40
2018-09-22T16:17:32.907Z,1.50
2018-09-22T16:20:00.533Z,1.40
2018-09-22T16:22:28.100Z,1.12
2018-09-22T16:24:55.653Z,1.40
2018-09-22T16:27:23.276Z,1.27
2018-09-22T16:29:51.330Z,1.40
2018-09-22T16:32:19.296Z,1.07
2018-09-22T16:34:46.943Z,1.20
2018-09-22T16:37:14.677Z,1.17
2018-09-22T16:39:42.290Z,1.10
2018-09-22T16:42:09.870Z,0.80
2018-09-22T16:44:37.498Z,0.82
2018-09-22T16:47:05.128Z,1.25
2018-09-22T16:49:33.139Z,1.02
2018-09-22T16:52:00.649Z,0.95
2018-09-22T16:54:28.242Z,1.22
2018-09-22T16:56:55.827Z,1.25
2018-09-22T16:59:23.468Z,1.20
2018-09-22T17:01:51.031Z,1.10
2018-09-22T17:04:18.638Z,0.90
2018-09-22T17:06:46.460Z,1.20
2018-09-22T17:09:14.049Z,1.30
2018-09-22T17:11:41.677Z,1.10
2018-09-22T17:14:09.239Z,1.10
2018-09-22T17:16:36.875Z,1.10
2018-09-22T17:19:04.377Z,1.00
2018-09-22T17:21:31.924Z,1.32
2018-09-22T17:23:59.517Z,1.12
2018-09-22T17:26:27.088Z,1.30
2018-09-22T17:28:54.956Z,1.50
2018-09-22T17:31:22.553Z,1.80
2018-09-22T17:33:50.248Z,1.42
2018-09-22T17:36:17.817Z,1.30
2018-09-22T17:38:45.402Z,1.50
2018-09-22T17:41:13.038Z,1.45
2018-09-22T17:43:40.634Z,1.30
2018-09-22T17:46:08.812Z,1.40
2018-09-22T17:48:36.405Z,1.42
2018-09-22T17:51:04.044Z,1.00
2018-09-22T17:53:31.674Z,1.10
2018-09-22T17:55:59.236Z,1.17
2018-09-22T17:58:26.825Z,1.22
2018-09-22T18:00:54.428Z,1.42
2018-09-22T18:03:22.016Z,1.40
2018-09-22T18:05:49.654Z,1.40
2018-09-22T18:08:17.222Z,1.30
2018-09-22T18:10:44.820Z,1.40
2018-09-22T18:13:12.401Z,1.40
2018-09-22T18:15:39.953Z,1.55
2018-09-22T18:18:07.896Z,1.52
2018-09-22T18:20:35.501Z,1.40
2018-09-22T18:23:03.075Z,1.75
2018-09-22T18:25:30.668Z,1.60
2018-09-22T18:27:58.294Z,1.75
2018-09-22T18:30:25.824Z,1.60
2018-09-22T18:32:53.491Z,1.47
2018-09-22T18:35:21.448Z,1.40
2018-09-22T18:37:49.061Z,1.30
2018-09-22T18:40:16.636Z,1.40
2018-09-22T18:42:44.247Z,1.77
2018-09-22T18:45:11.788Z,1.52
2018-09-22T18:47:39.429Z,1.30
2018-09-22T18:50:07.004Z,1.10
2018-09-22T18:52:34.611Z,1.60
2018-09-22T18:55:02.146Z,2.00
2018-09-22T18:57:29.752Z,2.05
2018-09-22T18:59:57.445Z,1.60
2018-09-22T19:02:24.994Z,1.57
2018-09-22T19:04:52.602Z,1.40
2018-09-22T19:07:20.206Z,1.50
2018-09-22T19:09:47.796Z,2.20
2018-09-22T19:12:15.432Z,1.85
2018-09-22T19:14:48.746Z,1.80
2018-09-22T19:17:25.063Z,1.65
2018-09-22T19:19:56.756Z,1.60
2018-09-22T19:22:27.356Z,1.65
2018-09-22T19:25:12.821Z,1.40
2018-09-22T19:27:58.553Z,1.50
2018-09-22T19:30:29.303Z,1.27
2018-09-22T19:33:03.699Z,1.65
2018-09-22T19:35:36.597Z,1.50
2018-09-22T19:38:14.211Z,1.57
2018-09-22T19:40:46.383Z,1.47
2018-09-22T19:43:21.789Z,1.70
2018-09-22T19:45:50.640Z,1.97
2018-09-22T19:48:27.238Z,2.00
2018-09-22T19:50:58.575Z,1.72
2018-09-22T19:53:26.171Z,1.85
2018-09-22T19:55:53.746Z,1.92
2018-09-22T19:58:21.341Z,2.20
2018-09-22T20:00:48.967Z,2.08
2018-09-22T20:03:16.525Z,1.70
2018-09-22T20:05:44.120Z,2.10
2018-09-22T20:08:11.697Z,1.95
2018-09-22T20:10:39.257Z,2.40
2018-09-22T20:13:06.883Z,2.47
2018-09-22T20:15:34.470Z,2.10
2018-09-22T20:18:02.062Z,1.80
2018-09-22T20:20:29.632Z,1.90
2018-09-22T20:22:57.235Z,1.40
2018-09-22T20:25:24.908Z,2.37
2018-09-22T20:27:52.453Z,3.58
2018-09-22T20:30:20.047Z,2.95
2018-09-22T20:32:47.985Z,2.52
2018-09-22T20:35:15.562Z,2.80
2018-09-22T20:37:43.122Z,2.30
2018-09-22T20:40:10.785Z,2.10
2018-09-22T20:42:38.396Z,2.30
2018-09-22T20:45:06.388Z,1.72
2018-09-22T20:47:34.129Z,1.90
2018-09-22T20:50:01.813Z,1.50
2018-09-22T20:52:29.405Z,1.52
2018-09-22T20:54:56.972Z,1.60
2018-09-22T20:57:24.591Z,1.57
2018-09-22T20:59:52.133Z,1.60
2018-09-22T21:02:19.742Z,1.53
2018-09-22T21:04:47.509Z,1.30
2018-09-22T21:07:15.073Z,1.37
2018-09-22T21:09:42.641Z,1.65
2018-09-22T21:12:10.220Z,1.70
2018-09-22T21:14:37.785Z,1.52
2018-09-22T21:17:05.645Z,2.05
2018-09-22T21:19:33.265Z,1.63
2018-09-22T21:22:00.803Z,2.08
2018-09-22T21:24:28.401Z,2.00
2018-09-22T21:26:56.012Z,1.57
2018-09-22T21:29:23.788Z,3.90
2018-09-22T21:31:51.355Z,2.77
2018-09-22T21:34:18.920Z,2.77
2018-09-22T21:36:46.492Z,1.90
2018-09-22T21:39:14.305Z,2.10
2018-09-22T21:41:41.910Z,1.75
2018-09-22T21:44:09.474Z,1.60
2018-09-22T21:46:37.092Z,1.67
2018-09-22T21:49:04.881Z,1.75
2018-09-22T21:51:32.495Z,1.50
2018-09-22T21:54:00.045Z,1.50
2018-09-22T21:56:27.591Z,1.67
2018-09-22T21:58:55.150Z,1.72
2018-09-22T22:01:28.459Z,1.67
2018-09-22T22:03:56.008Z,2.05
2018-09-22T22:06:23.653Z,1.90
2018-09-22T22:08:51.303Z,1.90
2018-09-22T22:11:18.921Z,1.70
2018-09-22T22:13:46.476Z,2.00
2018-09-22T22:16:14.111Z,2.20
2018-09-22T22:18:41.619Z,2.45
2018-09-22T22:21:09.616Z,1.95
2018-09-22T22:23:37.202Z,2.12
2018-09-22T22:26:04.799Z,1.50
2018-09-22T22:28:32.336Z,1.65
2018-09-22T22:30:59.927Z,1.72
2018-09-22T22:33:27.765Z,1.70
2018-09-22T22:35:55.328Z,1.70
2018-09-22T22:38:22.912Z,1.52
2018-09-22T22:40:50.455Z,1.80
2018-09-22T22:43:17.969Z,1.72
2018-09-22T22:45:45.573Z,1.50
2018-09-22T22:48:13.221Z,1.50
2018-09-22T22:50:40.780Z,2.40
2018-09-22T22:53:08.434Z,2.10
2018-09-22T22:55:35.952Z,2.00
2018-09-22T22:58:03.495Z,1.90
2018-09-22T23:00:31.136Z,2.37
2018-09-22T23:02:58.692Z,2.42
2018-09-22T23:05:26.233Z,1.90
2018-09-22T23:07:53.841Z,1.70
2018-09-22T23:10:21.387Z,2.33
2018-09-22T23:12:48.916Z,1.85
2018-09-22T23:15:16.572Z,2.17
2018-09-22T23:17:44.105Z,1.60
2018-09-22T23:20:11.679Z,1.70
2018-09-22T23:22:39.248Z,1.70
2018-09-22T23:25:06.903Z,1.50
2018-09-22T23:27:34.680Z,2.15
2018-09-22T23:30:02.313Z,1.70
2018-09-22T23:32:29.917Z,2.05
2018-09-22T23:34:57.474Z,1.70
2018-09-22T23:37:25.089Z,1.77
2018-09-22T23:39:52.673Z,1.70
2018-09-22T23:42:20.225Z,1.80
2018-09-22T23:44:47.833Z,2.05
2018-09-22T23:47:15.492Z,1.80
2018-09-22T23:49:43.064Z,1.70
2018-09-22T23:52:10.902Z,1.67
2018-09-22T23:54:38.476Z,2.00
2018-09-22T23:57:06.261Z,2.13
2018-09-22T23:59:33.852Z,1.70
